This is the latest recevied weather packets stored in our database for station/object LRBV. If no packets are shown the sender has not sent any weather packets the latest 10 day(s).
| Time | Temp. | Humidity | Pressure | Rain* | Wind** | Luminosity | Snow |
|---|---|---|---|---|---|---|---|
| 1777719830 | 8.89° C | 54% | 1022 hPa | - | - | - | - |
| 1777718930 | 10° C | 54% | 1023 hPa | - | - | - | - |
| 1777718031 | 10° C | 54% | 1023 hPa | - | - | - | - |
| 1777717127 | 7.78° C | 66% | 1023 hPa | - | - | - | - |
| 1777716230 | 7.78° C | 66% | 1023 hPa | - | - | - | - |
| 1777715327 | 7.22° C | 71% | 1023 hPa | - | - | - | - |
| 1777714513 | 7.22° C | 71% | 1023 hPa | - | - | - | - |
| 1777713530 | 7.78° C | 62% | 1023 hPa | - | - | - | - |
| 1777712630 | 7.78° C | 62% | 1023 hPa | - | - | - | - |
| 1777711738 | 7.78° C | 57% | 1023 hPa | - | - | - | - |
| 1777710831 | 7.78° C | 57% | 1023 hPa | - | - | - | - |
| 1777709930 | 8.89° C | 54% | 1023 hPa | - | - | - | - |
| 1777709030 | 8.89° C | 54% | 1023 hPa | - | - | - | - |
| 1777708130 | 8.89° C | 54% | 1023 hPa | - | - | - | - |
| 1777707230 | 8.89° C | 54% | 1023 hPa | - | - | - | - |
| 1777706331 | 7.78° C | 57% | 1023 hPa | - | - | - | - |
| 1777705432 | 7.78° C | 57% | 1023 hPa | - | - | - | - |
| 1777704530 | 7.78° C | 57% | 1023 hPa | - | - | - | - |
| 1777703630 | 7.78° C | 57% | 1023 hPa | - | - | - | - |
| 1777702731 | 7.78° C | 62% | 1023 hPa | - | - | - | - |
| 1777701831 | 7.78° C | 62% | 1023 hPa | - | - | - | - |
| 1777700930 | 7.78° C | 66% | 1023 hPa | - | - | - | - |
| 1777700031 | 7.78° C | 66% | 1023 hPa | - | - | - | - |
| 1777699130 | 7.22° C | 66% | 1023 hPa | - | - | - | - |
| 1777698230 | 7.22° C | 66% | 1023 hPa | - | - | - | - |
* Rain since midnight (hover to see other rain measurements)
** Current wind speed in m/s (hover to see current wind gust speed)